sensor_id;sensor_type;location;lat;lon;timestamp;temperature;humidity
69328;DHT22;56472;52.114;5.492;2023-04-30T00:02:18;13.00;64.60
69328;DHT22;56472;52.114;5.492;2023-04-30T00:04:45;13.00;64.60
69328;DHT22;56472;52.114;5.492;2023-04-30T00:07:12;12.90;64.70
69328;DHT22;56472;52.114;5.492;2023-04-30T00:09:40;12.90;65.00
69328;DHT22;56472;52.114;5.492;2023-04-30T00:12:06;12.80;64.90
69328;DHT22;56472;52.114;5.492;2023-04-30T00:14:33;12.80;64.90
69328;DHT22;56472;52.114;5.492;2023-04-30T00:17:00;12.80;64.90
69328;DHT22;56472;52.114;5.492;2023-04-30T00:19:27;12.80;64.90
69328;DHT22;56472;52.114;5.492;2023-04-30T00:21:54;12.70;64.80
69328;DHT22;56472;52.114;5.492;2023-04-30T00:24:21;12.70;65.10
69328;DHT22;56472;52.114;5.492;2023-04-30T00:26:48;12.70;65.30
69328;DHT22;56472;52.114;5.492;2023-04-30T00:29:15;12.70;65.30
69328;DHT22;56472;52.114;5.492;2023-04-30T00:31:42;12.70;65.40
69328;DHT22;56472;52.114;5.492;2023-04-30T00:34:09;12.60;65.30
69328;DHT22;56472;52.114;5.492;2023-04-30T00:36:35;12.60;65.50
69328;DHT22;56472;52.114;5.492;2023-04-30T00:39:02;12.60;66.60
69328;DHT22;56472;52.114;5.492;2023-04-30T00:41:30;12.60;65.70
69328;DHT22;56472;52.114;5.492;2023-04-30T00:43:57;12.60;65.80
69328;DHT22;56472;52.114;5.492;2023-04-30T00:46:24;12.50;65.70
69328;DHT22;56472;52.114;5.492;2023-04-30T00:48:52;12.50;65.70
69328;DHT22;56472;52.114;5.492;2023-04-30T00:51:19;12.50;65.60
69328;DHT22;56472;52.114;5.492;2023-04-30T00:53:46;12.50;65.60
69328;DHT22;56472;52.114;5.492;2023-04-30T00:56:13;12.50;65.70
69328;DHT22;56472;52.114;5.492;2023-04-30T00:58:44;12.40;65.60
69328;DHT22;56472;52.114;5.492;2023-04-30T01:01:11;12.40;65.60
69328;DHT22;56472;52.114;5.492;2023-04-30T01:03:38;12.40;65.90
69328;DHT22;56472;52.114;5.492;2023-04-30T01:06:06;12.40;66.20
69328;DHT22;56472;52.114;5.492;2023-04-30T01:08:33;12.30;66.40
69328;DHT22;56472;52.114;5.492;2023-04-30T01:13:39;12.30;65.90
69328;DHT22;56472;52.114;5.492;2023-04-30T01:16:21;12.30;65.20
69328;DHT22;56472;52.114;5.492;2023-04-30T01:18:59;12.20;64.40
69328;DHT22;56472;52.114;5.492;2023-04-30T01:21:29;12.10;63.90
69328;DHT22;56472;52.114;5.492;2023-04-30T01:29:33;11.80;65.10
69328;DHT22;56472;52.114;5.492;2023-04-30T01:32:02;11.70;66.00
69328;DHT22;56472;52.114;5.492;2023-04-30T01:34:29;11.70;66.50
69328;DHT22;56472;52.114;5.492;2023-04-30T01:45:31;11.60;67.10
69328;DHT22;56472;52.114;5.492;2023-04-30T01:50:57;11.60;67.20
69328;DHT22;56472;52.114;5.492;2023-04-30T01:53:39;11.60;67.50
69328;DHT22;56472;52.114;5.492;2023-04-30T01:56:30;11.60;67.70
69328;DHT22;56472;52.114;5.492;2023-04-30T01:58:58;11.50;67.70
69328;DHT22;56472;52.114;5.492;2023-04-30T02:01:28;11.60;67.80
69328;DHT22;56472;52.114;5.492;2023-04-30T02:03:55;11.50;67.80
69328;DHT22;56472;52.114;5.492;2023-04-30T02:06:24;11.50;67.70
69328;DHT22;56472;52.114;5.492;2023-04-30T02:08:56;11.50;67.60
69328;DHT22;56472;52.114;5.492;2023-04-30T02:11:28;11.50;67.70
69328;DHT22;56472;52.114;5.492;2023-04-30T02:13:55;11.40;67.90
69328;DHT22;56472;52.114;5.492;2023-04-30T02:16:23;11.40;67.90
69328;DHT22;56472;52.114;5.492;2023-04-30T02:18:50;11.40;67.90
69328;DHT22;56472;52.114;5.492;2023-04-30T02:21:17;11.40;67.70
69328;DHT22;56472;52.114;5.492;2023-04-30T02:23:44;11.40;67.50
69328;DHT22;56472;52.114;5.492;2023-04-30T02:26:11;11.30;67.30
69328;DHT22;56472;52.114;5.492;2023-04-30T02:28:38;11.30;67.30
69328;DHT22;56472;52.114;5.492;2023-04-30T02:31:05;11.30;67.30
69328;DHT22;56472;52.114;5.492;2023-04-30T02:33:32;11.20;67.50
69328;DHT22;56472;52.114;5.492;2023-04-30T02:35:59;11.20;67.50
69328;DHT22;56472;52.114;5.492;2023-04-30T02:38:26;11.20;67.50
69328;DHT22;56472;52.114;5.492;2023-04-30T02:40:53;11.20;67.70
69328;DHT22;56472;52.114;5.492;2023-04-30T02:43:20;11.20;67.90
69328;DHT22;56472;52.114;5.492;2023-04-30T02:45:47;11.10;68.00
69328;DHT22;56472;52.114;5.492;2023-04-30T02:48:14;11.10;68.00
69328;DHT22;56472;52.114;5.492;2023-04-30T02:50:41;11.10;67.90
69328;DHT22;56472;52.114;5.492;2023-04-30T02:53:08;11.10;67.90
69328;DHT22;56472;52.114;5.492;2023-04-30T02:55:35;11.10;67.90
69328;DHT22;56472;52.114;5.492;2023-04-30T02:58:03;11.10;67.90
69328;DHT22;56472;52.114;5.492;2023-04-30T03:00:29;11.10;67.90
69328;DHT22;56472;52.114;5.492;2023-04-30T03:02:56;11.00;68.00
69328;DHT22;56472;52.114;5.492;2023-04-30T03:05:23;11.00;68.10
69328;DHT22;56472;52.114;5.492;2023-04-30T03:07:50;11.00;68.20
69328;DHT22;56472;52.114;5.492;2023-04-30T03:10:17;11.00;68.20
69328;DHT22;56472;52.114;5.492;2023-04-30T03:12:44;11.00;68.10
69328;DHT22;56472;52.114;5.492;2023-04-30T03:15:11;10.90;68.00
69328;DHT22;56472;52.114;5.492;2023-04-30T03:17:38;10.90;68.00
69328;DHT22;56472;52.114;5.492;2023-04-30T03:20:06;10.90;68.00
69328;DHT22;56472;52.114;5.492;2023-04-30T03:22:33;10.80;67.70
69328;DHT22;56472;52.114;5.492;2023-04-30T03:25:00;10.80;67.70
69328;DHT22;56472;52.114;5.492;2023-04-30T03:27:27;10.80;67.70
69328;DHT22;56472;52.114;5.492;2023-04-30T03:29:54;10.80;67.80
69328;DHT22;56472;52.114;5.492;2023-04-30T03:32:21;10.70;67.80
69328;DHT22;56472;52.114;5.492;2023-04-30T03:34:49;10.70;67.80
69328;DHT22;56472;52.114;5.492;2023-04-30T03:37:16;10.60;67.90
69328;DHT22;56472;52.114;5.492;2023-04-30T03:39:43;10.60;68.20
69328;DHT22;56472;52.114;5.492;2023-04-30T03:42:10;10.60;68.50
69328;DHT22;56472;52.114;5.492;2023-04-30T03:44:36;10.60;68.40
69328;DHT22;56472;52.114;5.492;2023-04-30T03:47:04;10.60;67.80
69328;DHT22;56472;52.114;5.492;2023-04-30T03:49:32;10.50;67.40
69328;DHT22;56472;52.114;5.492;2023-04-30T03:51:59;10.50;67.30
69328;DHT22;56472;52.114;5.492;2023-04-30T03:54:26;10.40;67.30
69328;DHT22;56472;52.114;5.492;2023-04-30T03:56:53;10.30;67.40
69328;DHT22;56472;52.114;5.492;2023-04-30T03:59:20;10.20;67.60
69328;DHT22;56472;52.114;5.492;2023-04-30T04:01:47;10.20;68.00
69328;DHT22;56472;52.114;5.492;2023-04-30T04:04:14;10.20;68.40
69328;DHT22;56472;52.114;5.492;2023-04-30T04:06:42;10.10;68.80
69328;DHT22;56472;52.114;5.492;2023-04-30T04:09:09;10.10;69.00
69328;DHT22;56472;52.114;5.492;2023-04-30T04:11:40;10.10;69.20
69328;DHT22;56472;52.114;5.492;2023-04-30T04:14:07;10.10;69.30
69328;DHT22;56472;52.114;5.492;2023-04-30T04:16:34;10.10;69.40
69328;DHT22;56472;52.114;5.492;2023-04-30T04:19:01;10.10;69.60
69328;DHT22;56472;52.114;5.492;2023-04-30T04:21:28;10.10;69.70
69328;DHT22;56472;52.114;5.492;2023-04-30T04:23:55;10.10;69.60
69328;DHT22;56472;52.114;5.492;2023-04-30T04:26:23;10.10;69.50
69328;DHT22;56472;52.114;5.492;2023-04-30T04:28:51;10.10;69.50
69328;DHT22;56472;52.114;5.492;2023-04-30T04:31:18;10.10;69.40
69328;DHT22;56472;52.114;5.492;2023-04-30T04:33:46;10.00;69.40
69328;DHT22;56472;52.114;5.492;2023-04-30T04:36:13;10.00;69.50
69328;DHT22;56472;52.114;5.492;2023-04-30T04:38:39;10.00;69.60
69328;DHT22;56472;52.114;5.492;2023-04-30T04:41:07;10.00;69.80
69328;DHT22;56472;52.114;5.492;2023-04-30T04:43:34;10.00;69.90
69328;DHT22;56472;52.114;5.492;2023-04-30T04:46:01;10.00;70.10
69328;DHT22;56472;52.114;5.492;2023-04-30T04:48:28;10.00;70.30
69328;DHT22;56472;52.114;5.492;2023-04-30T04:50:56;10.00;70.60
69328;DHT22;56472;52.114;5.492;2023-04-30T04:53:22;10.00;70.70
69328;DHT22;56472;52.114;5.492;2023-04-30T04:55:50;10.00;70.80
69328;DHT22;56472;52.114;5.492;2023-04-30T04:58:17;10.10;70.70
69328;DHT22;56472;52.114;5.492;2023-04-30T05:00:44;10.10;70.60
69328;DHT22;56472;52.114;5.492;2023-04-30T05:03:10;10.10;70.60
69328;DHT22;56472;52.114;5.492;2023-04-30T05:05:37;10.10;70.60
69328;DHT22;56472;52.114;5.492;2023-04-30T05:08:04;10.10;70.80
69328;DHT22;56472;52.114;5.492;2023-04-30T05:10:31;10.10;71.00
69328;DHT22;56472;52.114;5.492;2023-04-30T05:12:58;10.10;71.10
69328;DHT22;56472;52.114;5.492;2023-04-30T05:15:25;10.10;71.30
69328;DHT22;56472;52.114;5.492;2023-04-30T05:17:52;10.20;71.60
69328;DHT22;56472;52.114;5.492;2023-04-30T05:20:19;10.20;71.70
69328;DHT22;56472;52.114;5.492;2023-04-30T05:22:46;10.20;71.80
69328;DHT22;56472;52.114;5.492;2023-04-30T05:25:13;10.20;72.10
69328;DHT22;56472;52.114;5.492;2023-04-30T05:27:39;10.30;72.20
69328;DHT22;56472;52.114;5.492;2023-04-30T05:30:07;10.30;72.50
69328;DHT22;56472;52.114;5.492;2023-04-30T05:32:35;10.40;72.80
69328;DHT22;56472;52.114;5.492;2023-04-30T05:35:02;10.40;73.00
69328;DHT22;56472;52.114;5.492;2023-04-30T05:37:29;10.40;73.20
69328;DHT22;56472;52.114;5.492;2023-04-30T05:39:55;10.50;73.50
69328;DHT22;56472;52.114;5.492;2023-04-30T05:42:23;10.50;73.80
69328;DHT22;56472;52.114;5.492;2023-04-30T05:44:49;10.60;74.20
69328;DHT22;56472;52.114;5.492;2023-04-30T05:47:16;10.70;74.60
69328;DHT22;56472;52.114;5.492;2023-04-30T05:49:43;10.70;75.00
69328;DHT22;56472;52.114;5.492;2023-04-30T05:52:10;10.80;75.30
69328;DHT22;56472;52.114;5.492;2023-04-30T05:54:37;10.90;75.70
69328;DHT22;56472;52.114;5.492;2023-04-30T05:57:04;10.90;75.80
69328;DHT22;56472;52.114;5.492;2023-04-30T05:59:31;11.00;75.90
69328;DHT22;56472;52.114;5.492;2023-04-30T06:01:58;11.10;76.20
69328;DHT22;56472;52.114;5.492;2023-04-30T06:04:25;11.20;76.30
69328;DHT22;56472;52.114;5.492;2023-04-30T06:06:52;11.20;76.40
69328;DHT22;56472;52.114;5.492;2023-04-30T06:09:18;11.30;76.60
69328;DHT22;56472;52.114;5.492;2023-04-30T06:11:46;11.40;76.60
69328;DHT22;56472;52.114;5.492;2023-04-30T06:14:16;11.50;77.60
69328;DHT22;56472;52.114;5.492;2023-04-30T06:16:44;11.60;77.00
69328;DHT22;56472;52.114;5.492;2023-04-30T06:19:11;11.70;77.10
69328;DHT22;56472;52.114;5.492;2023-04-30T06:21:38;11.80;77.20
69328;DHT22;56472;52.114;5.492;2023-04-30T06:24:05;11.90;77.30
69328;DHT22;56472;52.114;5.492;2023-04-30T06:26:32;12.00;77.30
69328;DHT22;56472;52.114;5.492;2023-04-30T06:28:59;12.10;77.20
69328;DHT22;56472;52.114;5.492;2023-04-30T06:31:26;12.20;77.10
69328;DHT22;56472;52.114;5.492;2023-04-30T06:33:53;12.30;77.00
69328;DHT22;56472;52.114;5.492;2023-04-30T06:36:20;12.40;76.90
69328;DHT22;56472;52.114;5.492;2023-04-30T06:38:47;12.50;77.10
69328;DHT22;56472;52.114;5.492;2023-04-30T06:41:14;12.60;77.10
69328;DHT22;56472;52.114;5.492;2023-04-30T06:43:44;12.70;77.10
69328;DHT22;56472;52.114;5.492;2023-04-30T06:46:11;12.80;77.10
69328;DHT22;56472;52.114;5.492;2023-04-30T06:48:40;13.00;76.80
69328;DHT22;56472;52.114;5.492;2023-04-30T06:51:08;13.00;77.40
69328;DHT22;56472;52.114;5.492;2023-04-30T06:53:36;13.10;76.40
69328;DHT22;56472;52.114;5.492;2023-04-30T06:56:03;13.20;76.20
69328;DHT22;56472;52.114;5.492;2023-04-30T06:58:30;13.30;76.10
69328;DHT22;56472;52.114;5.492;2023-04-30T07:00:57;13.40;76.10
69328;DHT22;56472;52.114;5.492;2023-04-30T07:03:24;13.60;75.70
69328;DHT22;56472;52.114;5.492;2023-04-30T07:05:51;13.60;75.70
69328;DHT22;56472;52.114;5.492;2023-04-30T07:08:20;13.80;75.80
69328;DHT22;56472;52.114;5.492;2023-04-30T07:10:47;13.90;75.30
69328;DHT22;56472;52.114;5.492;2023-04-30T07:13:14;14.00;75.10
69328;DHT22;56472;52.114;5.492;2023-04-30T07:15:42;14.10;74.90
69328;DHT22;56472;52.114;5.492;2023-04-30T07:18:09;14.10;74.70
69328;DHT22;56472;52.114;5.492;2023-04-30T07:20:36;14.20;74.60
69328;DHT22;56472;52.114;5.492;2023-04-30T07:23:03;14.30;74.30
69328;DHT22;56472;52.114;5.492;2023-04-30T07:25:29;14.40;74.30
69328;DHT22;56472;52.114;5.492;2023-04-30T07:27:56;14.50;73.90
69328;DHT22;56472;52.114;5.492;2023-04-30T07:30:23;14.50;73.70
69328;DHT22;56472;52.114;5.492;2023-04-30T07:32:51;14.60;73.30
69328;DHT22;56472;52.114;5.492;2023-04-30T07:35:17;14.70;73.10
69328;DHT22;56472;52.114;5.492;2023-04-30T07:37:44;14.70;72.90
69328;DHT22;56472;52.114;5.492;2023-04-30T07:40:11;14.70;72.30
69328;DHT22;56472;52.114;5.492;2023-04-30T07:42:43;14.80;72.20
69328;DHT22;56472;52.114;5.492;2023-04-30T07:45:10;14.80;72.20
69328;DHT22;56472;52.114;5.492;2023-04-30T07:47:39;14.90;72.40
69328;DHT22;56472;52.114;5.492;2023-04-30T07:50:06;14.90;72.40
69328;DHT22;56472;52.114;5.492;2023-04-30T07:52:33;15.00;71.90
69328;DHT22;56472;52.114;5.492;2023-04-30T07:55:00;15.10;71.90
69328;DHT22;56472;52.114;5.492;2023-04-30T07:57:27;15.10;71.80
69328;DHT22;56472;52.114;5.492;2023-04-30T07:59:54;15.20;71.70
69328;DHT22;56472;52.114;5.492;2023-04-30T08:02:21;15.20;71.70
69328;DHT22;56472;52.114;5.492;2023-04-30T08:04:49;15.30;71.40
69328;DHT22;56472;52.114;5.492;2023-04-30T08:07:16;15.40;71.20
69328;DHT22;56472;52.114;5.492;2023-04-30T08:09:42;15.40;70.70
69328;DHT22;56472;52.114;5.492;2023-04-30T08:12:09;15.50;70.90
69328;DHT22;56472;52.114;5.492;2023-04-30T08:14:36;15.60;71.00
69328;DHT22;56472;52.114;5.492;2023-04-30T08:17:03;15.70;70.80
69328;DHT22;56472;52.114;5.492;2023-04-30T08:19:30;15.80;70.20
69328;DHT22;56472;52.114;5.492;2023-04-30T08:21:58;15.80;69.90
69328;DHT22;56472;52.114;5.492;2023-04-30T08:24:25;15.80;69.90
69328;DHT22;56472;52.114;5.492;2023-04-30T08:26:52;15.90;69.50
69328;DHT22;56472;52.114;5.492;2023-04-30T08:29:20;16.00;69.50
69328;DHT22;56472;52.114;5.492;2023-04-30T08:31:47;16.00;69.60
69328;DHT22;56472;52.114;5.492;2023-04-30T08:34:14;16.10;69.10
69328;DHT22;56472;52.114;5.492;2023-04-30T08:36:41;16.20;69.00
69328;DHT22;56472;52.114;5.492;2023-04-30T08:39:08;16.20;68.80
69328;DHT22;56472;52.114;5.492;2023-04-30T08:41:35;16.30;68.50
69328;DHT22;56472;52.114;5.492;2023-04-30T08:44:03;16.40;68.20
69328;DHT22;56472;52.114;5.492;2023-04-30T08:46:35;16.40;68.20
69328;DHT22;56472;52.114;5.492;2023-04-30T08:49:04;16.50;68.30
69328;DHT22;56472;52.114;5.492;2023-04-30T08:51:32;16.50;67.90
69328;DHT22;56472;52.114;5.492;2023-04-30T08:53:59;16.60;67.80
69328;DHT22;56472;52.114;5.492;2023-04-30T08:56:26;16.70;67.60
69328;DHT22;56472;52.114;5.492;2023-04-30T08:58:55;16.80;67.80
69328;DHT22;56472;52.114;5.492;2023-04-30T09:01:22;16.80;67.60
69328;DHT22;56472;52.114;5.492;2023-04-30T09:03:50;16.90;66.50
69328;DHT22;56472;52.114;5.492;2023-04-30T09:06:17;17.00;66.20
69328;DHT22;56472;52.114;5.492;2023-04-30T09:08:45;17.10;65.70
69328;DHT22;56472;52.114;5.492;2023-04-30T09:11:29;17.20;65.20
69328;DHT22;56472;52.114;5.492;2023-04-30T09:13:58;17.20;65.50
69328;DHT22;56472;52.114;5.492;2023-04-30T09:16:27;17.30;65.10
69328;DHT22;56472;52.114;5.492;2023-04-30T09:18:58;17.40;64.70
69328;DHT22;56472;52.114;5.492;2023-04-30T09:21:33;17.40;64.70
69328;DHT22;56472;52.114;5.492;2023-04-30T09:24:02;17.50;64.00
69328;DHT22;56472;52.114;5.492;2023-04-30T09:26:35;17.60;63.00
69328;DHT22;56472;52.114;5.492;2023-04-30T09:29:02;17.70;62.70
69328;DHT22;56472;52.114;5.492;2023-04-30T09:31:34;17.80;62.60
69328;DHT22;56472;52.114;5.492;2023-04-30T09:34:02;17.80;62.10
69328;DHT22;56472;52.114;5.492;2023-04-30T09:36:29;17.80;62.30
69328;DHT22;56472;52.114;5.492;2023-04-30T09:39:10;17.90;62.50
69328;DHT22;56472;52.114;5.492;2023-04-30T09:41:41;17.90;62.00
69328;DHT22;56472;52.114;5.492;2023-04-30T09:44:28;18.00;60.80
69328;DHT22;56472;52.114;5.492;2023-04-30T09:46:56;18.10;61.00
69328;DHT22;56472;52.114;5.492;2023-04-30T09:49:25;18.20;61.00
69328;DHT22;56472;52.114;5.492;2023-04-30T09:51:58;18.30;59.50
69328;DHT22;56472;52.114;5.492;2023-04-30T09:54:29;18.40;59.30
69328;DHT22;56472;52.114;5.492;2023-04-30T09:56:59;18.40;59.50
69328;DHT22;56472;52.114;5.492;2023-04-30T09:59:29;18.50;59.30
69328;DHT22;56472;52.114;5.492;2023-04-30T10:02:00;18.60;59.00
69328;DHT22;56472;52.114;5.492;2023-04-30T10:04:36;18.60;59.20
69328;DHT22;56472;52.114;5.492;2023-04-30T10:07:07;18.70;58.70
69328;DHT22;56472;52.114;5.492;2023-04-30T10:09:50;18.90;57.60
69328;DHT22;56472;52.114;5.492;2023-04-30T10:12:32;18.90;58.00
69328;DHT22;56472;52.114;5.492;2023-04-30T10:15:19;19.00;58.10
69328;DHT22;56472;52.114;5.492;2023-04-30T10:17:50;19.10;57.60
69328;DHT22;56472;52.114;5.492;2023-04-30T10:20:20;19.20;57.10
69328;DHT22;56472;52.114;5.492;2023-04-30T10:22:47;19.30;55.50
69328;DHT22;56472;52.114;5.492;2023-04-30T10:25:15;19.30;55.70
69328;DHT22;56472;52.114;5.492;2023-04-30T10:27:42;19.30;55.30
69328;DHT22;56472;52.114;5.492;2023-04-30T10:30:10;19.40;54.40
69328;DHT22;56472;52.114;5.492;2023-04-30T10:36:04;19.50;55.10
69328;DHT22;56472;52.114;5.492;2023-04-30T10:38:34;19.60;55.00
69328;DHT22;56472;52.114;5.492;2023-04-30T10:41:04;19.60;53.90
69328;DHT22;56472;52.114;5.492;2023-04-30T10:43:32;19.70;53.40
69328;DHT22;56472;52.114;5.492;2023-04-30T10:46:02;19.80;53.10
69328;DHT22;56472;52.114;5.492;2023-04-30T10:48:33;19.80;54.10
69328;DHT22;56472;52.114;5.492;2023-04-30T10:51:01;19.90;53.40
69328;DHT22;56472;52.114;5.492;2023-04-30T10:53:31;19.90;52.80
69328;DHT22;56472;52.114;5.492;2023-04-30T10:58:29;20.10;53.20
69328;DHT22;56472;52.114;5.492;2023-04-30T11:03:30;20.30;53.90
69328;DHT22;56472;52.114;5.492;2023-04-30T11:05:59;20.30;54.20
69328;DHT22;56472;52.114;5.492;2023-04-30T11:08:36;20.40;52.90
69328;DHT22;56472;52.114;5.492;2023-04-30T11:11:04;20.50;52.70
69328;DHT22;56472;52.114;5.492;2023-04-30T11:13:43;20.60;52.40
69328;DHT22;56472;52.114;5.492;2023-04-30T11:16:11;20.70;50.50
69328;DHT22;56472;52.114;5.492;2023-04-30T11:18:43;20.80;51.00
69328;DHT22;56472;52.114;5.492;2023-04-30T11:21:12;20.90;50.50
69328;DHT22;56472;52.114;5.492;2023-04-30T11:23:42;21.00;51.90
69328;DHT22;56472;52.114;5.492;2023-04-30T11:26:10;21.10;52.30
69328;DHT22;56472;52.114;5.492;2023-04-30T11:28:37;21.20;51.40
69328;DHT22;56472;52.114;5.492;2023-04-30T11:31:04;21.30;51.30
69328;DHT22;56472;52.114;5.492;2023-04-30T11:33:32;21.50;49.90
69328;DHT22;56472;52.114;5.492;2023-04-30T11:36:01;21.60;49.10
69328;DHT22;56472;52.114;5.492;2023-04-30T11:38:30;21.60;49.00
69328;DHT22;56472;52.114;5.492;2023-04-30T11:41:00;21.70;49.60
69328;DHT22;56472;52.114;5.492;2023-04-30T11:43:32;21.80;49.20
69328;DHT22;56472;52.114;5.492;2023-04-30T11:46:01;21.90;48.90
69328;DHT22;56472;52.114;5.492;2023-04-30T11:48:37;22.00;48.90
69328;DHT22;56472;52.114;5.492;2023-04-30T11:53:41;22.10;47.90
69328;DHT22;56472;52.114;5.492;2023-04-30T11:56:08;22.20;46.60
69328;DHT22;56472;52.114;5.492;2023-04-30T11:58:36;22.20;47.10
69328;DHT22;56472;52.114;5.492;2023-04-30T12:01:07;22.30;46.10
69328;DHT22;56472;52.114;5.492;2023-04-30T12:03:49;22.30;45.60
69328;DHT22;56472;52.114;5.492;2023-04-30T12:06:24;22.30;45.40
69328;DHT22;56472;52.114;5.492;2023-04-30T12:08:55;22.40;47.10
69328;DHT22;56472;52.114;5.492;2023-04-30T12:11:28;22.50;46.90
69328;DHT22;56472;52.114;5.492;2023-04-30T12:14:00;22.60;46.10
69328;DHT22;56472;52.114;5.492;2023-04-30T12:16:50;22.60;45.20
69328;DHT22;56472;52.114;5.492;2023-04-30T12:19:19;22.70;46.60
69328;DHT22;56472;52.114;5.492;2023-04-30T12:21:47;22.80;45.90
69328;DHT22;56472;52.114;5.492;2023-04-30T12:24:17;22.90;44.00
69328;DHT22;56472;52.114;5.492;2023-04-30T12:26:44;22.90;44.70
69328;DHT22;56472;52.114;5.492;2023-04-30T12:29:17;23.00;44.90
69328;DHT22;56472;52.114;5.492;2023-04-30T12:31:47;23.10;45.20
69328;DHT22;56472;52.114;5.492;2023-04-30T12:34:15;23.20;44.90
69328;DHT22;56472;52.114;5.492;2023-04-30T12:36:44;23.40;44.60
69328;DHT22;56472;52.114;5.492;2023-04-30T12:39:12;23.50;45.40
69328;DHT22;56472;52.114;5.492;2023-04-30T12:41:46;23.50;44.90
69328;DHT22;56472;52.114;5.492;2023-04-30T12:44:24;23.60;45.70
69328;DHT22;56472;52.114;5.492;2023-04-30T12:46:53;23.70;43.00
69328;DHT22;56472;52.114;5.492;2023-04-30T12:51:49;23.90;43.30
69328;DHT22;56472;52.114;5.492;2023-04-30T12:54:27;24.00;43.30
69328;DHT22;56472;52.114;5.492;2023-04-30T12:56:58;24.20;43.80
69328;DHT22;56472;52.114;5.492;2023-04-30T12:59:27;24.30;43.60
69328;DHT22;56472;52.114;5.492;2023-04-30T13:01:54;24.50;44.50
69328;DHT22;56472;52.114;5.492;2023-04-30T13:04:21;24.60;43.00
69328;DHT22;56472;52.114;5.492;2023-04-30T13:06:48;24.70;44.50
69328;DHT22;56472;52.114;5.492;2023-04-30T13:09:15;24.80;42.70
69328;DHT22;56472;52.114;5.492;2023-04-30T13:11:42;25.00;41.70
69328;DHT22;56472;52.114;5.492;2023-04-30T13:14:09;25.10;42.10
69328;DHT22;56472;52.114;5.492;2023-04-30T13:16:36;25.20;41.30
69328;DHT22;56472;52.114;5.492;2023-04-30T13:19:05;25.30;40.30
69328;DHT22;56472;52.114;5.492;2023-04-30T13:21:32;25.30;38.70
69328;DHT22;56472;52.114;5.492;2023-04-30T13:24:00;25.40;39.10
69328;DHT22;56472;52.114;5.492;2023-04-30T13:26:27;25.40;38.60
69328;DHT22;56472;52.114;5.492;2023-04-30T13:28:55;25.50;39.70
69328;DHT22;56472;52.114;5.492;2023-04-30T13:31:22;25.60;40.90
69328;DHT22;56472;52.114;5.492;2023-04-30T13:33:49;25.60;40.00
69328;DHT22;56472;52.114;5.492;2023-04-30T13:36:16;25.80;38.70
69328;DHT22;56472;52.114;5.492;2023-04-30T13:38:43;26.00;39.10
69328;DHT22;56472;52.114;5.492;2023-04-30T13:41:10;26.20;39.20
69328;DHT22;56472;52.114;5.492;2023-04-30T13:43:37;26.30;38.30
69328;DHT22;56472;52.114;5.492;2023-04-30T13:46:08;26.60;38.10
69328;DHT22;56472;52.114;5.492;2023-04-30T13:48:35;26.70;38.60
69328;DHT22;56472;52.114;5.492;2023-04-30T13:51:02;27.00;39.10
69328;DHT22;56472;52.114;5.492;2023-04-30T13:53:29;27.30;38.80
69328;DHT22;56472;52.114;5.492;2023-04-30T13:55:56;27.60;37.50
69328;DHT22;56472;52.114;5.492;2023-04-30T13:58:25;27.90;36.10
69328;DHT22;56472;52.114;5.492;2023-04-30T14:00:52;28.20;37.30
69328;DHT22;56472;52.114;5.492;2023-04-30T14:03:19;28.40;36.50
69328;DHT22;56472;52.114;5.492;2023-04-30T14:05:46;28.50;35.60
69328;DHT22;56472;52.114;5.492;2023-04-30T14:08:13;28.70;36.10
69328;DHT22;56472;52.114;5.492;2023-04-30T14:10:40;28.80;35.00
69328;DHT22;56472;52.114;5.492;2023-04-30T14:13:07;29.00;35.20
69328;DHT22;56472;52.114;5.492;2023-04-30T14:15:34;29.30;34.40
69328;DHT22;56472;52.114;5.492;2023-04-30T14:18:01;29.50;33.10
69328;DHT22;56472;52.114;5.492;2023-04-30T14:20:28;29.70;31.40
69328;DHT22;56472;52.114;5.492;2023-04-30T14:22:55;29.70;32.60
69328;DHT22;56472;52.114;5.492;2023-04-30T14:25:22;29.80;34.20
69328;DHT22;56472;52.114;5.492;2023-04-30T14:27:49;30.00;35.60
69328;DHT22;56472;52.114;5.492;2023-04-30T14:30:16;30.30;33.90
69328;DHT22;56472;52.114;5.492;2023-04-30T14:32:43;30.60;32.40
69328;DHT22;56472;52.114;5.492;2023-04-30T14:35:10;31.00;31.70
69328;DHT22;56472;52.114;5.492;2023-04-30T14:37:37;31.40;31.00
69328;DHT22;56472;52.114;5.492;2023-04-30T14:40:04;31.90;30.10
69328;DHT22;56472;52.114;5.492;2023-04-30T14:42:33;32.30;30.00
69328;DHT22;56472;52.114;5.492;2023-04-30T14:45:00;32.50;28.90
69328;DHT22;56472;52.114;5.492;2023-04-30T14:47:27;32.60;29.40
69328;DHT22;56472;52.114;5.492;2023-04-30T14:49:54;32.40;28.60
69328;DHT22;56472;52.114;5.492;2023-04-30T14:52:21;32.10;28.60
69328;DHT22;56472;52.114;5.492;2023-04-30T14:54:48;31.70;28.30
69328;DHT22;56472;52.114;5.492;2023-04-30T14:57:16;31.30;29.00
69328;DHT22;56472;52.114;5.492;2023-04-30T14:59:44;30.80;28.60
69328;DHT22;56472;52.114;5.492;2023-04-30T15:02:11;30.50;28.70
69328;DHT22;56472;52.114;5.492;2023-04-30T15:04:38;30.30;30.00
69328;DHT22;56472;52.114;5.492;2023-04-30T15:07:04;30.40;31.00
69328;DHT22;56472;52.114;5.492;2023-04-30T15:09:31;30.50;30.20
69328;DHT22;56472;52.114;5.492;2023-04-30T15:11:58;30.80;30.00
69328;DHT22;56472;52.114;5.492;2023-04-30T15:14:25;30.90;29.70
69328;DHT22;56472;52.114;5.492;2023-04-30T15:16:52;30.80;28.50
69328;DHT22;56472;52.114;5.492;2023-04-30T15:19:19;30.60;28.50
69328;DHT22;56472;52.114;5.492;2023-04-30T15:21:46;30.30;30.70
69328;DHT22;56472;52.114;5.492;2023-04-30T15:24:14;30.10;30.60
69328;DHT22;56472;52.114;5.492;2023-04-30T15:26:41;30.10;30.00
69328;DHT22;56472;52.114;5.492;2023-04-30T15:29:08;30.30;30.00
69328;DHT22;56472;52.114;5.492;2023-04-30T15:31:36;30.50;29.70
69328;DHT22;56472;52.114;5.492;2023-04-30T15:34:03;30.80;29.40
69328;DHT22;56472;52.114;5.492;2023-04-30T15:36:30;31.10;29.50
69328;DHT22;56472;52.114;5.492;2023-04-30T15:38:58;31.50;29.50
69328;DHT22;56472;52.114;5.492;2023-04-30T15:41:25;31.80;28.80
69328;DHT22;56472;52.114;5.492;2023-04-30T15:43:52;32.10;28.90
69328;DHT22;56472;52.114;5.492;2023-04-30T15:46:19;32.30;28.40
69328;DHT22;56472;52.114;5.492;2023-04-30T15:48:46;32.40;28.00
69328;DHT22;56472;52.114;5.492;2023-04-30T15:51:13;32.40;27.70
69328;DHT22;56472;52.114;5.492;2023-04-30T15:53:39;32.30;27.50
69328;DHT22;56472;52.114;5.492;2023-04-30T15:56:07;31.90;27.80
69328;DHT22;56472;52.114;5.492;2023-04-30T15:58:35;31.50;28.10
69328;DHT22;56472;52.114;5.492;2023-04-30T16:01:02;31.20;28.00
69328;DHT22;56472;52.114;5.492;2023-04-30T16:03:29;31.00;28.20
69328;DHT22;56472;52.114;5.492;2023-04-30T16:05:58;30.60;28.60
69328;DHT22;56472;52.114;5.492;2023-04-30T16:08:27;30.30;29.10
69328;DHT22;56472;52.114;5.492;2023-04-30T16:10:54;30.10;29.00